Аэропорт: Кривой Рог. Кривой Рог

ICAO: UKDR

METAR:
2021-07-28 13:00:00
UKDR 281300Z 26005MPS CAVOK 33/14 Q1014 R18/09//70 TEMPO -TSRA BKN013CB
METAR:
2021-07-28 11:05:00
TAF UKDR 281105Z 2812/2912 22005G10MPS 9999 SCT030 SCT030CB TX34/2912Z TN20/2902Z TEMPO 2812/2818 VRB08G14MPS 2100 -TSRAGR BKN013CB BECMG 2821/2823 22003MPS